Time;durP1;ratioP1;P1;durP2;ratioP2;P2;SDS_P1;SDS_P2;PMS_P1;PMS_P2;Temp;Humidity;BMP_temperature;BMP_pressure;BME280_temperature;BME280_humidity;BME280_pressure;Samples;Min_cycle;Max_cycle;Signal;HPM_P1;HPM_P2
2020/12/13 00:01:55;;;;;;;37.85;13.30;;;9.50;99.90;;;;;;5013042;28;20180;-89
2020/12/13 00:04:27;;;;;;;31.92;11.73;;;9.50;99.90;;;;;;5032271;28;20164;-90
2020/12/13 00:06:58;;;;;;;33.78;11.10;;;9.60;99.90;;;;;;5014333;28;20652;-89
2020/12/13 00:09:26;;;;;;;27.13;10.88;;;9.70;99.90;;;;;;5014235;28;20163;-90
2020/12/13 00:11:53;;;;;;;27.15;10.73;;;9.50;99.90;;;;;;5031239;28;20263;-90
2020/12/13 00:14:24;;;;;;;17.42;8.30;;;9.50;99.90;;;;;;5015088;28;20214;-90
2020/12/13 00:16:57;;;;;;;29.13;9.90;;;9.40;99.90;;;;;;5031920;28;20263;-90
2020/12/13 00:19:28;;;;;;;23.92;9.50;;;9.40;99.90;;;;;;5017597;28;20246;-91
2020/12/13 00:22:00;;;;;;;17.52;8.90;;;9.50;99.90;;;;;;5033495;28;20232;-90
2020/12/13 00:25:11;;;;;;;24.40;8.93;;;9.60;99.90;;;;;;5006726;28;20189;-90
2020/12/13 00:27:40;;;;;;;22.50;8.27;;;9.60;99.90;;;;;;5011563;28;20288;-89
2020/12/13 00:30:06;;;;;;;20.60;8.57;;;9.50;99.90;;;;;;5005874;28;20224;-89
2020/12/13 00:32:42;;;;;;;31.98;8.18;;;9.50;99.90;;;;;;5002434;28;20205;-91
2020/12/13 00:35:29;;;;;;;25.15;7.38;;;9.30;99.90;;;;;;4971919;28;20189;-89
2020/12/13 00:38:00;;;;;;;23.17;7.25;;;9.20;99.90;;;;;;4987133;28;20205;-91
2020/12/13 00:40:31;;;;;;;22.95;8.02;;;9.10;99.90;;;;;;4996562;28;20173;-88
2020/12/13 00:43:01;;;;;;;15.07;6.73;;;9.10;99.90;;;;;;5000225;28;20166;-90
2020/12/13 00:45:34;;;;;;;20.03;7.53;;;9.20;99.90;;;;;;4989937;28;20186;-90
2020/12/13 00:48:10;;;;;;;23.00;7.67;;;9.30;99.90;;;;;;4966422;28;20190;-89
2020/12/13 00:50:57;;;;;;;18.73;7.17;;;9.20;99.90;;;;;;4968317;28;20186;-91
2020/12/13 00:53:29;;;;;;;19.60;6.20;;;9.20;99.90;;;;;;4982064;28;20296;-88
2020/12/13 00:55:59;;;;;;;26.83;7.05;;;9.10;99.90;;;;;;5019814;28;20215;-90
2020/12/13 00:58:40;;;;;;;15.60;5.67;;;9.10;99.90;;;;;;5014785;28;20179;-90
2020/12/13 01:01:06;;;;;;;22.47;5.77;;;9.20;99.90;;;;;;5031516;28;20684;-90
2020/12/13 01:03:43;;;;;;;12.13;5.13;;;9.20;99.90;;;;;;5013115;28;20179;-91
2020/12/13 01:06:37;;;;;;;20.97;6.57;;;9.30;99.90;;;;;;5012458;28;20173;-89
2020/12/13 01:09:13;;;;;;;14.80;5.63;;;9.40;99.90;;;;;;4994862;28;20259;-91
2020/12/13 01:11:47;;;;;;;18.53;5.67;;;9.30;99.90;;;;;;4996017;28;20693;-88
2020/12/13 01:14:15;;;;;;;12.87;5.73;;;9.10;99.90;;;;;;4993901;28;20200;-89
2020/12/13 01:16:43;;;;;;;27.87;6.10;;;9.10;99.90;;;;;;5010394;28;20256;-89
2020/12/13 01:19:11;;;;;;;15.70;5.53;;;9.20;99.90;;;;;;5023838;28;20181;-91
2020/12/13 01:21:39;;;;;;;33.35;5.85;;;9.30;99.90;;;;;;5008300;28;20189;-89
2020/12/13 01:24:05;;;;;;;16.17;5.57;;;9.20;99.90;;;;;;4994189;28;20204;-89
2020/12/13 01:26:41;;;;;;;20.23;4.95;;;9.20;99.90;;;;;;4991316;28;20185;-89
2020/12/13 01:29:08;;;;;;;21.57;5.67;;;9.20;99.90;;;;;;5007217;28;20182;-89
2020/12/13 01:31:36;;;;;;;21.10;5.00;;;9.20;99.90;;;;;;5009179;28;20203;-87
2020/12/13 01:34:02;;;;;;;27.98;5.20;;;9.30;99.90;;;;;;4975201;28;20165;-89
2020/12/13 01:36:31;;;;;;;18.70;4.50;;;9.40;99.90;;;;;;4992366;28;20169;-90
2020/12/13 01:38:57;;;;;;;17.08;4.57;;;9.50;99.90;;;;;;5009821;28;20173;-88
2020/12/13 01:41:32;;;;;;;20.40;4.38;;;9.60;99.90;;;;;;5027079;28;20184;-88
2020/12/13 01:44:07;;;;;;;17.10;4.80;;;9.60;99.90;;;;;;5028711;28;20173;-90
2020/12/13 01:46:47;;;;;;;14.65;4.53;;;9.60;99.90;;;;;;5028877;28;20180;-88
2020/12/13 01:49:24;;;;;;;12.45;4.25;;;9.60;99.90;;;;;;5027787;28;20164;-89
2020/12/13 01:54:46;;;;;;;15.50;4.40;;;9.40;99.90;;;;;;4954527;28;20192;-89
2020/12/13 01:57:20;;;;;;;12.73;4.28;;;9.40;99.90;;;;;;4989239;28;20677;-90
2020/12/13 01:59:55;;;;;;;12.00;3.63;;;9.50;99.90;;;;;;5006154;28;20185;-90
2020/12/13 02:02:43;;;;;;;15.30;3.78;;;9.50;99.90;;;;;;4972307;28;20758;-88
2020/12/13 02:05:34;;;;;;;19.65;4.18;;;9.40;99.90;;;;;;5004828;28;20193;-88
2020/12/13 02:08:14;;;;;;;19.37;3.93;;;9.40;99.90;;;;;;5017525;28;20161;-88
2020/12/13 02:10:46;;;;;;;23.27;4.60;;;9.40;99.90;;;;;;5001264;28;20215;-90
2020/12/13 02:13:20;;;;;;;12.30;4.73;;;9.20;99.90;;;;;;5002503;28;20224;-89
2020/12/13 02:22:22;;;;;;;15.73;3.65;;;9.50;99.90;;;;;;5002140;28;20684;-89
2020/12/13 02:24:49;;;;;;;12.18;4.10;;;9.50;99.90;;;;;;4984985;28;20204;-90
2020/12/13 02:27:18;;;;;;;15.40;4.03;;;9.60;99.90;;;;;;5000882;28;20185;-89
2020/12/13 02:29:49;;;;;;;13.75;3.70;;;9.70;99.90;;;;;;5000932;28;20184;-89
2020/12/13 02:32:19;;;;;;;13.00;3.78;;;9.60;99.90;;;;;;4969140;28;20225;-89
2020/12/13 02:34:46;;;;;;;14.43;3.65;;;9.40;99.90;;;;;;4983345;28;20174;-89
2020/12/13 02:37:17;;;;;;;13.75;4.32;;;9.30;99.90;;;;;;4982329;28;20225;-90
2020/12/13 02:39:46;;;;;;;13.07;3.60;;;9.30;99.90;;;;;;4982563;28;20207;-89
2020/12/13 02:42:26;;;;;;;12.18;3.90;;;9.30;99.90;;;;;;4965205;28;20193;-89
2020/12/13 02:45:14;;;;;;;;;;;;;;;;;;;;;
2020/12/13 02:47:56;;;;;;;10.23;3.57;;;9.60;99.90;;;;;;5003649;28;20220;-88
2020/12/13 02:50:38;;;;;;;;;;;;;;;;;;;;;
2020/12/13 02:53:19;;;;;;;12.82;3.78;;;9.80;99.90;;;;;;5050928;28;20234;-90
2020/12/13 02:55:47;;;;;;;14.05;4.18;;;9.80;99.90;;;;;;5041810;28;20172;-89
2020/12/13 02:58:12;;;;;;;8.60;3.47;;;9.80;99.90;;;;;;5019203;28;20195;-90
2020/12/13 03:00:38;;;;;;;11.25;3.60;;;9.90;99.90;;;;;;5017309;28;20302;-90
2020/12/13 03:03:03;;;;;;;15.13;3.65;;;10.00;99.90;;;;;;5000539;28;20262;-90
2020/12/13 03:05:29;;;;;;;19.85;4.22;;;10.00;99.90;;;;;;5009479;28;20211;-89
2020/12/13 03:07:55;;;;;;;11.48;3.88;;;10.10;99.90;;;;;;5023816;28;20167;-88
2020/12/13 03:10:20;;;;;;;19.73;4.65;;;10.00;99.90;;;;;;5011819;28;20531;-89
2020/12/13 03:12:46;;;;;;;19.17;5.03;;;9.90;99.90;;;;;;5001189;28;20204;-89
2020/12/13 03:15:12;;;;;;;9.45;4.20;;;9.70;99.90;;;;;;5016516;28;20203;-89
2020/12/13 03:17:37;;;;;;;13.07;4.13;;;9.70;99.90;;;;;;5000259;28;20321;-89
2020/12/13 03:20:03;;;;;;;11.95;4.28;;;9.70;99.90;;;;;;5016789;28;20176;-89
2020/12/13 03:22:29;;;;;;;10.80;4.32;;;9.70;99.90;;;;;;5016645;28;20180;-90
2020/12/13 03:24:55;;;;;;;14.85;4.70;;;9.40;99.90;;;;;;5000001;28;20238;-89
2020/12/13 03:27:27;;;;;;;17.13;3.72;;;9.50;99.90;;;;;;5000174;28;20176;-89
2020/12/13 03:29:52;;;;;;;13.10;4.15;;;9.50;99.90;;;;;;5000813;28;20168;-89
2020/12/13 03:32:19;;;;;;;18.80;3.78;;;9.50;99.90;;;;;;5016439;28;20253;-89
2020/12/13 03:34:44;;;;;;;7.30;4.20;;;9.60;99.90;;;;;;5000253;28;20263;-89
2020/12/13 03:37:10;;;;;;;14.40;4.50;;;9.70;99.90;;;;;;5016344;28;20588;-89
2020/12/13 03:39:36;;;;;;;13.43;3.80;;;9.80;99.90;;;;;;5016169;28;20203;-89
2020/12/13 03:42:01;;;;;;;12.10;3.97;;;9.80;99.90;;;;;;4996837;28;20284;-89
2020/12/13 03:44:27;;;;;;;10.52;4.55;;;9.70;99.90;;;;;;5013043;28;20169;-90
2020/12/13 03:46:52;;;;;;;8.90;3.45;;;9.70;99.90;;;;;;4999830;28;20172;-86
2020/12/13 03:49:18;;;;;;;20.48;5.32;;;9.70;99.90;;;;;;5016244;28;20164;-88
2020/12/13 03:51:44;;;;;;;14.60;4.10;;;9.70;99.90;;;;;;4999744;28;20553;-88
2020/12/13 03:54:09;;;;;;;11.27;4.25;;;9.50;99.90;;;;;;4999604;28;20267;-88
2020/12/13 03:56:35;;;;;;;11.52;4.03;;;9.50;99.90;;;;;;5000489;28;20180;-88
2020/12/13 03:59:01;;;;;;;9.85;4.10;;;9.50;99.90;;;;;;5019966;28;20176;-88
2020/12/13 04:01:29;;;;;;;17.35;3.92;;;9.50;99.90;;;;;;5020053;28;20517;-89
2020/12/13 04:03:55;;;;;;;11.48;4.13;;;9.60;99.90;;;;;;5003593;28;20168;-88
2020/12/13 04:06:23;;;;;;;12.40;4.90;;;9.50;99.90;;;;;;5036851;28;20173;-88
2020/12/13 04:08:49;;;;;;;11.35;3.97;;;9.50;99.90;;;;;;5019506;28;20183;-88
2020/12/13 04:11:14;;;;;;;16.00;4.43;;;9.50;99.90;;;;;;5019322;28;20212;-88
2020/12/13 04:13:40;;;;;;;11.85;4.55;;;9.50;99.90;;;;;;5019357;28;20523;-88
2020/12/13 04:16:06;;;;;;;27.60;5.05;;;9.50;99.90;;;;;;5019240;28;20251;-88
2020/12/13 04:18:31;;;;;;;13.48;4.53;;;9.40;99.90;;;;;;5036968;28;20250;-88
2020/12/13 04:20:57;;;;;;;13.68;4.80;;;9.40;99.90;;;;;;5003053;28;20176;-88
2020/12/13 04:23:23;;;;;;;17.67;5.03;;;9.40;99.90;;;;;;5019180;28;20203;-88
2020/12/13 04:25:48;;;;;;;14.57;4.40;;;9.30;99.90;;;;;;5019125;28;20258;-87
2020/12/13 04:28:17;;;;;;;16.20;4.70;;;9.40;99.90;;;;;;5019214;28;20182;-87
2020/12/13 04:30:42;;;;;;;16.13;4.88;;;9.40;99.90;;;;;;5019771;28;20176;-88
2020/12/13 04:33:10;;;;;;;13.82;4.50;;;9.40;99.90;;;;;;5036497;28;20212;-88
2020/12/13 04:35:37;;;;;;;17.50;4.78;;;9.40;99.90;;;;;;5019093;28;20171;-88
2020/12/13 04:38:03;;;;;;;9.98;4.28;;;9.30;99.90;;;;;;5036672;28;20164;-87
2020/12/13 04:40:32;;;;;;;10.85;4.28;;;9.20;99.90;;;;;;5036350;28;20173;-87
2020/12/13 04:42:59;;;;;;;14.35;4.20;;;9.10;99.90;;;;;;5003118;28;20207;-88
2020/12/13 04:45:25;;;;;;;13.43;4.57;;;9.20;99.90;;;;;;5018659;28;20175;-88
2020/12/13 04:48:05;;;;;;;25.13;5.03;;;9.10;99.90;;;;;;5018684;28;20613;-88
2020/12/13 04:50:33;;;;;;;12.95;3.97;;;9.10;99.90;;;;;;5018812;28;20255;-87
2020/12/13 04:53:02;;;;;;;14.40;4.10;;;9.20;99.90;;;;;;5018315;28;20210;-88
2020/12/13 04:55:29;;;;;;;19.77;4.93;;;9.20;99.90;;;;;;5018649;28;20168;-89
2020/12/13 04:57:55;;;;;;;16.77;4.20;;;9.20;99.90;;;;;;5018442;28;20172;-88
2020/12/13 05:00:25;;;;;;;15.70;4.55;;;9.20;99.90;;;;;;5018600;28;20191;-88
2020/12/13 05:02:52;;;;;;;16.73;4.20;;;9.20;99.90;;;;;;5018381;28;20626;-87
2020/12/13 05:05:20;;;;;;;18.63;4.22;;;9.20;99.90;;;;;;5035904;28;20226;-88
2020/12/13 05:07:45;;;;;;;13.73;3.83;;;9.30;99.90;;;;;;5001942;28;20641;-88
2020/12/13 05:10:11;;;;;;;11.57;4.20;;;9.30;99.90;;;;;;5002115;28;20230;-88
2020/12/13 05:12:37;;;;;;;13.77;4.20;;;9.20;99.90;;;;;;5002048;28;20239;-88
2020/12/13 05:15:04;;;;;;;14.80;3.97;;;9.20;99.90;;;;;;5041419;28;20184;-88
2020/12/13 05:17:32;;;;;;;12.38;3.80;;;9.30;99.90;;;;;;5021171;28;20189;-88
2020/12/13 05:19:58;;;;;;;12.07;3.53;;;9.30;99.90;;;;;;5028900;28;20176;-88
2020/12/13 05:22:23;;;;;;;12.32;4.07;;;9.40;99.90;;;;;;5002047;28;20182;-88
2020/12/13 05:24:50;;;;;;;19.85;4.38;;;9.40;99.90;;;;;;4985676;28;20192;-88
2020/12/13 05:27:22;;;;;;;11.67;3.73;;;9.30;99.90;;;;;;5001745;28;20205;-87
2020/12/13 05:29:54;;;;;;;17.73;3.73;;;9.30;99.90;;;;;;5018204;28;20176;-88
2020/12/13 05:32:23;;;;;;;21.23;4.22;;;9.40;99.90;;;;;;5037616;28;20263;-88
2020/12/13 05:34:50;;;;;;;18.98;4.43;;;9.30;99.90;;;;;;5037482;28;20180;-88
2020/12/13 05:37:17;;;;;;;11.70;4.00;;;9.20;99.90;;;;;;5006059;28;20173;-87
2020/12/13 05:39:51;;;;;;;15.80;4.03;;;9.20;99.90;;;;;;5017784;28;20168;-88
2020/12/13 05:42:37;;;;;;;8.83;3.60;;;9.10;99.90;;;;;;5035525;28;20180;-88
2020/12/13 05:50:29;;;;;;;14.35;3.17;;;9.20;99.90;;;;;;5035349;28;20170;-87
2020/12/13 05:52:55;;;;;;;10.60;3.07;;;9.30;99.90;;;;;;5003993;28;20206;-88
2020/12/13 05:55:21;;;;;;;15.80;3.50;;;9.30;99.90;;;;;;4997842;28;20184;-88
2020/12/13 05:57:50;;;;;;;15.30;3.47;;;9.30;99.90;;;;;;4997718;28;20181;-88
2020/12/13 06:00:17;;;;;;;12.68;3.45;;;9.30;99.90;;;;;;5017412;28;20187;-88
2020/12/13 06:02:48;;;;;;;18.10;4.18;;;9.30;99.90;;;;;;5000405;28;20429;-88
2020/12/13 06:05:16;;;;;;;14.95;3.42;;;9.10;99.90;;;;;;5017347;28;20200;-88
2020/12/13 06:07:50;;;;;;;12.40;3.45;;;9.10;99.90;;;;;;5001343;28;20176;-89
2020/12/13 06:10:24;;;;;;;21.73;4.00;;;9.00;99.90;;;;;;4996972;28;20176;-88
2020/12/13 06:13:02;;;;;;;13.50;3.63;;;9.00;99.90;;;;;;5017101;28;20295;-88
2020/12/13 06:15:29;;;;;;;8.82;3.63;;;8.90;99.90;;;;;;5016984;28;20294;-88
2020/12/13 06:17:54;;;;;;;15.68;3.53;;;8.80;99.90;;;;;;5016841;28;20172;-88
2020/12/13 06:20:21;;;;;;;8.25;2.80;;;8.70;99.90;;;;;;4996549;28;20512;-88
2020/12/13 06:22:49;;;;;;;12.13;3.65;;;8.70;99.90;;;;;;5014589;28;20188;-88
2020/12/13 06:25:16;;;;;;;7.90;3.35;;;8.60;99.90;;;;;;4997385;28;20195;-88
2020/12/13 06:27:41;;;;;;;10.32;3.17;;;8.70;99.90;;;;;;5013574;28;20173;-88
2020/12/13 06:30:10;;;;;;;9.45;3.47;;;8.60;99.90;;;;;;5015025;28;20238;-87
2020/12/13 06:32:40;;;;;;;9.90;3.30;;;8.50;99.90;;;;;;5016765;28;20288;-88
2020/12/13 06:35:06;;;;;;;10.13;3.70;;;8.50;99.90;;;;;;5016854;28;20175;-88
2020/12/13 06:37:32;;;;;;;12.60;4.20;;;8.40;99.90;;;;;;5000613;28;20637;-88
2020/12/13 06:39:57;;;;;;;6.53;3.23;;;8.40;99.90;;;;;;5000398;28;20225;-87
2020/12/13 06:42:26;;;;;;;9.50;3.90;;;8.30;99.90;;;;;;5000371;28;20188;-88
2020/12/13 06:45:03;;;;;;;10.87;3.03;;;8.20;99.90;;;;;;5000537;28;20203;-88
2020/12/13 06:47:30;;;;;;;9.87;2.73;;;8.10;99.90;;;;;;5016795;28;20182;-88
2020/12/13 06:49:56;;;;;;;14.73;3.80;;;8.10;99.90;;;;;;5016557;28;20193;-88
2020/12/13 06:52:33;;;;;;;12.50;3.37;;;8.10;99.90;;;;;;5000419;28;20676;-87
2020/12/13 06:55:06;;;;;;;13.00;3.97;;;7.90;99.90;;;;;;5016548;28;20494;-88
2020/12/13 06:57:35;;;;;;;9.77;3.03;;;7.90;99.90;;;;;;5016820;28;20171;-88
2020/12/13 07:00:09;;;;;;;22.63;3.70;;;7.80;99.90;;;;;;5016596;28;20579;-87
2020/12/13 07:02:57;;;;;;;8.63;3.50;;;7.90;99.90;;;;;;5016734;28;20182;-88
2020/12/13 07:05:46;;;;;;;10.37;3.70;;;7.90;99.90;;;;;;5000490;28;20251;-88
2020/12/13 07:08:19;;;;;;;14.17;4.07;;;7.80;99.90;;;;;;5016654;28;20172;-87
2020/12/13 07:10:48;;;;;;;21.13;5.90;;;7.80;99.90;;;;;;5034146;28;20230;-88
2020/12/13 07:13:18;;;;;;;15.33;5.50;;;7.80;99.90;;;;;;5000436;28;20203;-87
2020/12/13 07:16:13;;;;;;;16.13;6.93;;;7.80;99.90;;;;;;4984635;28;20180;-87
2020/12/13 07:18:44;;;;;;;16.53;5.50;;;7.80;99.90;;;;;;5016660;28;20168;-87
2020/12/13 07:21:14;;;;;;;22.23;6.90;;;7.80;99.90;;;;;;5016564;28;20535;-87
2020/12/13 07:23:39;;;;;;;23.73;7.27;;;7.80;99.90;;;;;;4999781;28;20176;-87
2020/12/13 07:26:05;;;;;;;26.15;9.80;;;7.80;99.90;;;;;;5000036;28;20439;-87
2020/12/13 07:28:31;;;;;;;24.23;9.10;;;7.70;99.90;;;;;;5017964;28;20199;-90
2020/12/13 07:31:01;;;;;;;18.97;10.00;;;7.80;99.90;;;;;;5018515;28;20226;-85
2020/12/13 07:33:27;;;;;;;30.50;9.83;;;7.80;99.90;;;;;;5019486;28;20180;-83
2020/12/13 07:35:52;;;;;;;30.57;10.17;;;7.80;99.90;;;;;;5002856;28;20567;-83
2020/12/13 07:38:18;;;;;;;19.20;9.37;;;7.70;99.90;;;;;;5020566;28;20176;-84
2020/12/13 07:40:44;;;;;;;21.03;8.13;;;7.90;99.90;;;;;;5022490;28;20187;-84
2020/12/13 07:43:09;;;;;;;21.77;8.73;;;7.90;99.90;;;;;;5036870;28;20180;-90
2020/12/13 07:45:35;;;;;;;24.80;8.40;;;7.90;99.90;;;;;;5031957;28;20180;-90
2020/12/13 07:48:01;;;;;;;27.23;7.23;;;8.00;99.90;;;;;;5007715;28;20172;-90
2020/12/13 07:50:34;;;;;;;27.07;6.93;;;8.00;99.90;;;;;;5006319;28;20172;-90
2020/12/13 07:53:01;;;;;;;26.27;6.30;;;8.00;99.90;;;;;;5023718;28;20223;-90
2020/12/13 07:55:27;;;;;;;17.30;6.53;;;8.10;99.90;;;;;;5006913;28;20180;-90
2020/12/13 07:57:52;;;;;;;26.57;6.30;;;8.20;99.90;;;;;;5034330;28;20168;-91
2020/12/13 08:00:19;;;;;;;17.50;5.53;;;8.20;99.90;;;;;;5020685;28;20240;-90
2020/12/13 08:02:45;;;;;;;15.83;5.27;;;8.20;99.90;;;;;;5028522;28;20592;-90
2020/12/13 08:05:12;;;;;;;17.83;5.40;;;8.30;99.90;;;;;;5022308;28;20179;-91
2020/12/13 08:07:37;;;;;;;17.57;5.17;;;8.40;99.90;;;;;;5007349;28;20180;-90
2020/12/13 08:10:03;;;;;;;15.07;6.20;;;8.50;99.90;;;;;;5009051;28;20536;-90
2020/12/13 08:12:32;;;;;;;19.37;5.53;;;8.60;99.90;;;;;;5023268;28;20204;-90
2020/12/13 08:14:58;;;;;;;22.30;4.90;;;8.80;99.90;;;;;;5024578;28;20191;-91
2020/12/13 08:17:23;;;;;;;24.83;7.63;;;8.90;99.90;;;;;;4991927;28;20172;-90
2020/12/13 08:19:55;;;;;;;16.00;4.97;;;9.00;99.90;;;;;;5008493;28;20173;-90
2020/12/13 08:22:23;;;;;;;11.80;4.55;;;9.10;99.90;;;;;;5023031;28;20644;-90
2020/12/13 08:25:15;;;;;;;17.77;5.83;;;9.10;99.90;;;;;;5019349;28;20183;-90
2020/12/13 08:27:42;;;;;;;10.97;5.43;;;9.10;99.90;;;;;;5016916;28;20215;-91
2020/12/13 08:30:08;;;;;;;17.25;6.03;;;9.10;99.90;;;;;;5019281;28;20178;-91
2020/12/13 08:32:36;;;;;;;20.25;6.45;;;9.10;99.90;;;;;;5036578;28;20208;-90
2020/12/13 08:35:09;;;;;;;11.97;5.63;;;9.10;99.90;;;;;;5019558;28;20168;-89
2020/12/13 08:37:35;;;;;;;13.47;5.03;;;9.20;99.90;;;;;;5037144;28;20175;-91
2020/12/13 08:40:01;;;;;;;11.53;4.90;;;9.40;99.90;;;;;;5020421;28;20180;-90
2020/12/13 08:42:27;;;;;;;16.80;5.40;;;9.50;99.90;;;;;;5036377;28;20195;-91
2020/12/13 08:44:52;;;;;;;14.80;4.63;;;9.50;99.90;;;;;;5019068;28;20318;-91
2020/12/13 08:47:20;;;;;;;16.13;5.68;;;9.60;99.90;;;;;;5037843;28;20179;-88
2020/12/13 08:49:48;;;;;;;14.63;4.97;;;9.70;99.90;;;;;;5022020;28;20641;-90
2020/12/13 08:52:25;;;;;;;15.55;5.47;;;9.90;99.90;;;;;;5020933;28;20204;-90
2020/12/13 08:54:53;;;;;;;15.77;5.00;;;10.20;99.90;;;;;;5021898;28;20234;-91
2020/12/13 08:57:33;;;;;;;10.52;5.30;;;10.20;99.90;;;;;;5037426;28;20268;-90
2020/12/13 08:59:59;;;;;;;12.40;4.45;;;10.40;99.90;;;;;;5037409;28;20624;-90
2020/12/13 09:02:25;;;;;;;18.70;5.07;;;10.70;99.90;;;;;;5032992;28;20169;-89
2020/12/13 09:04:58;;;;;;;16.48;4.43;;;11.10;99.90;;;;;;4994682;28;20179;-90
2020/12/13 09:07:31;;;;;;;14.23;5.78;;;11.30;99.90;;;;;;5017202;28;20165;-90
2020/12/13 09:10:12;;;;;;;70.50;32.42;;;11.50;99.90;;;;;;5004307;28;20263;-90
2020/12/13 09:12:40;;;;;;;22.98;11.73;;;11.70;99.90;;;;;;5004295;28;20204;-90
2020/12/13 09:15:14;;;;;;;56.25;29.60;;;11.70;99.90;;;;;;5015964;28;20180;-91
2020/12/13 09:17:40;;;;;;;19.83;8.18;;;11.80;99.90;;;;;;5019631;28;20650;-90
2020/12/13 09:20:07;;;;;;;20.20;11.23;;;12.20;99.90;;;;;;5020259;28;20172;-90
2020/12/13 09:22:33;;;;;;;36.60;22.95;;;12.40;99.90;;;;;;5020824;28;20183;-90
2020/12/13 09:24:59;;;;;;;33.10;19.10;;;12.70;99.90;;;;;;5021415;28;20180;-90
2020/12/13 09:27:26;;;;;;;33.65;19.17;;;13.00;99.90;;;;;;5006111;28;20177;-89
2020/12/13 09:29:53;;;;;;;80.45;42.53;;;13.00;99.90;;;;;;5021216;28;20176;-91
2020/12/13 09:32:20;;;;;;;47.50;27.77;;;13.10;99.90;;;;;;5035858;28;20228;-91
2020/12/13 09:34:47;;;;;;;15.10;8.90;;;13.10;99.90;;;;;;5036597;28;20206;-90
2020/12/13 09:37:17;;;;;;;38.17;20.10;;;13.00;99.90;;;;;;5057793;28;20172;-89
2020/12/13 09:39:43;;;;;;;49.15;27.17;;;12.80;99.90;;;;;;5057399;28;20187;-88
2020/12/13 09:42:10;;;;;;;24.67;10.50;;;12.60;99.90;;;;;;5017910;28;20180;-90
2020/12/13 09:44:36;;;;;;;21.73;9.73;;;12.40;99.90;;;;;;5011273;28;20173;-90
2020/12/13 09:47:02;;;;;;;27.90;14.93;;;12.30;99.90;;;;;;5006172;28;20194;-91
2020/12/13 09:49:31;;;;;;;18.17;7.03;;;12.30;99.90;;;;;;5022070;28;20232;-91
2020/12/13 09:52:02;;;;;;;22.15;10.02;;;12.40;99.90;;;;;;5022386;28;20253;-90
2020/12/13 09:54:29;;;;;;;75.18;40.47;;;12.30;99.90;;;;;;5034247;28;20168;-90
2020/12/13 09:56:55;;;;;;;49.10;25.73;;;12.30;99.90;;;;;;5004082;28;20541;-90
2020/12/13 09:59:21;;;;;;;40.88;19.92;;;12.00;99.90;;;;;;5019998;28;20182;-90
2020/12/13 10:01:47;;;;;;;15.20;8.82;;;12.00;99.90;;;;;;5020272;28;20180;-90
2020/12/13 10:04:14;;;;;;;23.30;10.15;;;12.20;99.90;;;;;;5038359;28;20176;-90
2020/12/13 10:06:52;;;;;;;15.45;7.18;;;13.20;99.90;;;;;;5035517;28;20172;-90
2020/12/13 10:09:19;;;;;;;14.75;7.90;;;14.70;99.90;;;;;;5005054;28;20176;-91
2020/12/13 10:11:45;;;;;;;23.65;9.98;;;15.70;99.90;;;;;;5025221;28;20232;-91
2020/12/13 10:14:12;;;;;;;19.17;8.38;;;16.40;99.90;;;;;;5020370;28;20183;-90
2020/12/13 10:16:42;;;;;;;17.10;8.13;;;16.70;99.90;;;;;;5019898;28;20164;-90
2020/12/13 10:19:08;;;;;;;13.98;7.07;;;16.50;99.90;;;;;;5036395;28;20175;-91
2020/12/13 10:21:35;;;;;;;16.70;9.27;;;15.70;99.90;;;;;;5017668;28;20203;-91
2020/12/13 10:24:02;;;;;;;25.85;17.23;;;14.30;99.90;;;;;;5017365;28;20195;-90
2020/12/13 10:26:31;;;;;;;22.80;10.02;;;13.70;99.90;;;;;;5030399;28;20222;-91
2020/12/13 10:28:57;;;;;;;23.85;9.77;;;13.30;99.90;;;;;;5004920;28;20171;-90
2020/12/13 10:31:34;;;;;;;25.08;10.45;;;13.10;99.90;;;;;;5015248;28;20203;-90
2020/12/13 10:34:00;;;;;;;23.63;9.82;;;12.70;99.90;;;;;;5001678;28;20262;-90
2020/12/13 10:36:26;;;;;;;21.98;12.52;;;12.00;99.90;;;;;;5001451;28;20215;-91
2020/12/13 10:38:52;;;;;;;31.75;13.57;;;11.80;99.90;;;;;;5006523;28;20185;-91
2020/12/13 10:41:22;;;;;;;17.52;9.90;;;11.50;99.90;;;;;;5011267;28;20175;-91
2020/12/13 10:43:49;;;;;;;52.40;25.13;;;11.40;99.90;;;;;;5036300;28;20219;-91
2020/12/13 10:46:15;;;;;;;44.10;23.90;;;11.30;99.90;;;;;;5000124;28;20176;-89
2020/12/13 10:48:42;;;;;;;72.28;35.28;;;11.30;99.90;;;;;;5016860;28;20180;-91
2020/12/13 10:51:07;;;;;;;21.15;11.38;;;11.40;99.90;;;;;;5013271;28;20191;-86
2020/12/13 10:53:33;;;;;;;28.88;14.43;;;11.50;99.90;;;;;;5016126;28;20673;-90
2020/12/13 10:55:59;;;;;;;20.42;8.43;;;11.90;99.90;;;;;;5036827;28;20187;-89
2020/12/13 10:58:25;;;;;;;16.83;8.55;;;12.20;99.90;;;;;;5033613;28;20621;-90
2020/12/13 11:00:51;;;;;;;20.13;9.65;;;12.60;99.90;;;;;;5015536;28;20184;-90
2020/12/13 11:03:17;;;;;;;19.00;7.70;;;13.60;99.90;;;;;;5005086;28;20182;-90
2020/12/13 11:05:43;;;;;;;17.05;7.85;;;16.00;99.90;;;;;;5036965;28;20569;-90
2020/12/13 11:08:11;;;;;;;10.23;7.35;;;18.50;99.90;;;;;;5019717;28;20234;-90
2020/12/13 11:10:36;;;;;;;25.65;14.73;;;20.20;99.90;;;;;;5004291;28;20239;-91
2020/12/13 11:13:02;;;;;;;15.35;7.65;;;19.60;99.90;;;;;;5020562;28;20294;-90
2020/12/13 11:15:28;;;;;;;27.30;11.52;;;19.00;99.90;;;;;;5003129;28;20180;-90
2020/12/13 11:17:53;;;;;;;53.03;29.42;;;18.40;99.90;;;;;;5020545;28;20203;-90
2020/12/13 11:20:19;;;;;;;13.82;7.13;;;17.60;99.90;;;;;;5003412;28;20267;-90
2020/12/13 11:22:45;;;;;;;16.83;7.85;;;16.70;99.90;;;;;;5004234;28;20180;-91
2020/12/13 11:25:10;;;;;;;15.23;7.45;;;15.80;99.90;;;;;;5019905;28;20746;-90
2020/12/13 11:27:36;;;;;;;20.83;11.40;;;14.90;99.90;;;;;;5008884;28;20179;-90
2020/12/13 11:30:06;;;;;;;14.32;9.55;;;14.70;99.90;;;;;;5019605;28;20172;-89
2020/12/13 11:32:32;;;;;;;9.77;4.78;;;14.60;99.90;;;;;;5020759;28;20200;-90
2020/12/13 11:34:57;;;;;;;20.20;9.10;;;14.90;99.90;;;;;;5000109;28;20181;-90
2020/12/13 11:37:23;;;;;;;233.13;121.18;;;15.50;99.90;;;;;;5000713;28;20528;-90
2020/12/13 11:39:49;;;;;;;56.25;27.20;;;16.00;99.90;;;;;;5018395;28;20172;-90
2020/12/13 11:42:16;;;;;;;27.70;12.93;;;15.20;99.90;;;;;;5020230;28;20245;-90
2020/12/13 11:44:42;;;;;;;82.47;39.88;;;14.40;99.90;;;;;;5019579;28;20656;-90
2020/12/13 11:47:08;;;;;;;108.45;50.55;;;13.60;99.90;;;;;;5012629;28;20177;-88
2020/12/13 11:49:33;;;;;;;22.88;11.05;;;13.00;99.90;;;;;;5000514;28;20173;-90
2020/12/13 11:51:59;;;;;;;126.72;59.30;;;12.30;99.90;;;;;;5003723;28;20204;-90
2020/12/13 11:54:25;;;;;;;38.60;17.90;;;11.90;99.90;;;;;;5005095;28;20270;-90
2020/12/13 11:56:50;;;;;;;32.80;16.08;;;11.60;99.90;;;;;;5019428;28;20191;-90
2020/12/13 11:59:16;;;;;;;8.48;4.13;;;11.00;99.90;;;;;;5003714;28;20266;-90
2020/12/13 12:01:44;;;;;;;10.57;5.60;;;10.70;99.90;;;;;;5003590;28;20572;-89
2020/12/13 12:04:10;;;;;;;19.08;8.85;;;10.70;99.90;;;;;;4999982;28;20219;-90
2020/12/13 12:06:36;;;;;;;49.63;21.60;;;11.40;99.90;;;;;;5020014;28;20179;-90
2020/12/13 12:09:03;;;;;;;24.67;10.20;;;11.30;99.90;;;;;;5003441;28;20176;-89
2020/12/13 12:11:29;;;;;;;68.07;23.95;;;10.80;99.90;;;;;;5035895;28;20721;-89
2020/12/13 12:13:55;;;;;;;31.55;14.25;;;10.70;99.90;;;;;;5018566;28;20172;-90
2020/12/13 12:16:28;;;;;;;46.05;14.32;;;10.60;99.90;;;;;;5019740;28;20255;-89
2020/12/13 12:18:55;;;;;;;43.25;13.80;;;10.60;99.90;;;;;;5019870;28;20225;-89
2020/12/13 12:21:24;;;;;;;26.63;9.77;;;10.60;99.90;;;;;;5019590;28;20235;-90
2020/12/13 12:23:49;;;;;;;16.40;6.00;;;10.70;99.90;;;;;;5004880;28;20194;-89
2020/12/13 12:26:16;;;;;;;42.67;19.67;;;10.70;99.90;;;;;;5018882;28;20697;-89
2020/12/13 12:28:42;;;;;;;36.42;14.70;;;10.70;99.90;;;;;;5003368;28;20236;-89
2020/12/13 12:31:07;;;;;;;17.15;6.93;;;11.00;99.90;;;;;;5006418;28;20184;-90
2020/12/13 12:33:33;;;;;;;23.42;9.23;;;11.50;99.90;;;;;;5037103;28;20188;-90
2020/12/13 12:35:58;;;;;;;15.07;5.60;;;11.60;99.90;;;;;;4999346;28;20173;-90
2020/12/13 12:38:24;;;;;;;17.13;6.10;;;11.40;99.90;;;;;;4996393;28;20184;-88
2020/12/13 12:40:50;;;;;;;22.42;10.50;;;11.90;99.90;;;;;;5019085;28;20206;-89
2020/12/13 12:43:15;;;;;;;21.10;8.20;;;13.00;99.90;;;;;;5018911;28;20184;-89
2020/12/13 12:45:41;;;;;;;23.10;10.45;;;13.50;99.90;;;;;;5003625;28;20213;-90
2020/12/13 12:48:06;;;;;;;16.73;6.93;;;13.70;99.90;;;;;;5009250;28;20203;-90
2020/12/13 12:50:36;;;;;;;13.63;5.60;;;13.00;99.90;;;;;;5023954;28;20296;-90
2020/12/13 12:53:04;;;;;;;18.38;5.72;;;12.10;99.90;;;;;;5031753;28;20211;-90
2020/12/13 12:55:30;;;;;;;13.73;6.47;;;11.50;99.90;;;;;;4986108;28;20185;-89
2020/12/13 12:57:59;;;;;;;17.15;7.82;;;11.30;99.90;;;;;;5001908;28;20188;-89
2020/12/13 13:02:57;;;;;;;26.10;7.97;;;11.30;99.90;;;;;;5036477;28;20176;-89
2020/12/13 13:08:21;;;;;;;21.30;7.95;;;10.70;99.90;;;;;;5006838;28;20185;-90
2020/12/13 13:10:48;;;;;;;15.30;4.30;;;10.40;99.90;;;;;;5003342;28;20176;-91
2020/12/13 13:13:14;;;;;;;14.63;4.93;;;10.30;99.90;;;;;;5024187;28;20666;-90